Time;durP1;ratioP1;P1;durP2;ratioP2;P2;SDS_P1;SDS_P2;PMS_P1;PMS_P2;Temp;Humidity;BMP_temperature;BMP_pressure;BME280_temperature;BME280_humidity;BME280_pressure;Samples;Min_cycle;Max_cycle;Signal;HPM_P1;HPM_P2
2021/10/07 00:01:50;;;;;;;2.97;2.77;;;10.00;99.90;;;;;;494164;240;28452;-77
2021/10/07 00:03:51;;;;;;;4.03;2.67;;;10.00;99.90;;;;;;494151;240;28351;-77
2021/10/07 00:05:52;;;;;;;2.70;2.50;;;10.00;99.90;;;;;;494143;240;28429;-77
2021/10/07 00:07:53;;;;;;;2.70;2.50;;;10.10;99.90;;;;;;494189;240;28416;-77
2021/10/07 00:09:55;;;;;;;2.70;2.50;;;10.00;99.90;;;;;;494185;240;27907;-77
2021/10/07 00:11:56;;;;;;;3.57;3.00;;;10.00;99.90;;;;;;494192;240;27753;-77
2021/10/07 00:13:57;;;;;;;3.23;2.70;;;10.10;99.90;;;;;;494155;240;27937;-77
2021/10/07 00:15:59;;;;;;;5.43;3.17;;;10.10;99.90;;;;;;494143;240;27720;-77
2021/10/07 00:18:00;;;;;;;2.70;2.50;;;10.10;99.90;;;;;;494166;240;27972;-78
2021/10/07 00:20:01;;;;;;;3.33;3.03;;;10.10;99.90;;;;;;494138;240;27809;-77
2021/10/07 00:22:02;;;;;;;3.73;2.90;;;10.10;99.90;;;;;;494156;240;28312;-77
2021/10/07 00:24:09;;;;;;;3.90;3.60;;;10.10;99.90;;;;;;494164;238;28010;-77
2021/10/07 00:26:10;;;;;;;3.70;3.40;;;10.10;99.90;;;;;;494134;240;27944;-77
2021/10/07 00:28:12;;;;;;;3.73;3.40;;;10.10;99.90;;;;;;494216;237;27618;-76
2021/10/07 00:30:17;;;;;;;3.57;3.13;;;10.10;99.90;;;;;;494197;240;28034;-77
2021/10/07 00:32:29;;;;;;;3.90;3.23;;;10.00;99.90;;;;;;494133;240;28346;-76
2021/10/07 00:40:56;;;;;;;3.60;3.30;;;10.00;99.90;;;;;;494178;240;27721;-74
2021/10/07 00:42:57;;;;;;;3.70;2.93;;;10.00;99.90;;;;;;494176;240;27900;-77
2021/10/07 00:44:58;;;;;;;3.77;3.27;;;10.00;99.90;;;;;;494180;237;28046;-77
2021/10/07 00:46:59;;;;;;;5.10;3.00;;;10.00;99.90;;;;;;494245;240;27618;-77
2021/10/07 00:49:01;;;;;;;3.60;3.00;;;10.00;99.90;;;;;;494193;240;28431;-77
2021/10/07 00:51:02;;;;;;;3.00;2.70;;;10.00;99.90;;;;;;494163;240;28250;-77
2021/10/07 00:53:03;;;;;;;3.20;2.90;;;10.00;99.90;;;;;;494220;240;28539;-76
2021/10/07 00:55:07;;;;;;;5.43;3.13;;;10.10;99.90;;;;;;494211;240;27623;-77
2021/10/07 00:57:06;;;;;;;4.13;3.83;;;10.10;99.90;;;;;;494069;240;28025;-77
2021/10/07 00:59:07;;;;;;;5.90;3.30;;;10.10;99.90;;;;;;494240;240;27941;-77
2021/10/07 01:01:08;;;;;;;3.67;3.37;;;10.10;99.90;;;;;;494207;240;27585;-77
2021/10/07 01:03:09;;;;;;;3.63;3.00;;;10.10;99.90;;;;;;494167;240;28054;-77
2021/10/07 01:05:11;;;;;;;4.73;3.20;;;10.10;99.90;;;;;;494199;240;28024;-75
2021/10/07 01:07:12;;;;;;;3.57;3.27;;;10.10;99.90;;;;;;494187;240;27792;-77
2021/10/07 01:09:13;;;;;;;3.37;3.00;;;10.10;99.90;;;;;;494202;240;27924;-77
2021/10/07 01:11:14;;;;;;;3.07;2.87;;;10.10;99.90;;;;;;494194;240;28005;-77
2021/10/07 01:13:16;;;;;;;3.63;3.30;;;10.10;99.90;;;;;;494190;240;28423;-76
2021/10/07 01:15:18;;;;;;;3.53;3.27;;;10.10;99.90;;;;;;494216;240;28209;-77
2021/10/07 01:17:18;;;;;;;4.57;3.77;;;10.10;99.90;;;;;;494158;240;28414;-77
2021/10/07 01:19:20;;;;;;;5.07;3.87;;;10.10;99.90;;;;;;494208;237;28482;-77
2021/10/07 01:21:21;;;;;;;4.40;3.80;;;10.10;99.90;;;;;;494194;240;27491;-77
2021/10/07 01:23:22;;;;;;;4.87;3.70;;;10.10;99.90;;;;;;494152;237;27975;-76
2021/10/07 01:25:23;;;;;;;3.43;3.13;;;10.10;99.90;;;;;;494208;240;27979;-76
2021/10/07 01:27:24;;;;;;;3.67;3.37;;;10.10;99.90;;;;;;494216;240;27936;-77
2021/10/07 01:29:26;;;;;;;4.00;3.60;;;10.10;99.90;;;;;;494204;240;27944;-77
2021/10/07 01:31:27;;;;;;;3.70;3.40;;;10.10;99.90;;;;;;494240;240;27951;-76
2021/10/07 01:33:28;;;;;;;4.70;3.40;;;10.10;99.90;;;;;;494188;240;27686;-76
2021/10/07 01:35:30;;;;;;;4.40;4.00;;;10.10;99.90;;;;;;494188;240;27989;-76
2021/10/07 01:37:31;;;;;;;4.53;4.10;;;10.00;99.90;;;;;;494204;240;28401;-76
2021/10/07 01:39:32;;;;;;;3.40;3.10;;;10.00;99.90;;;;;;494225;240;28298;-76
2021/10/07 01:41:33;;;;;;;4.00;3.57;;;10.00;99.90;;;;;;494199;240;29187;-76
2021/10/07 01:43:34;;;;;;;4.43;3.50;;;10.00;99.90;;;;;;494212;240;28367;-76
2021/10/07 01:45:36;;;;;;;4.77;4.37;;;10.00;99.90;;;;;;494244;240;28154;-76
2021/10/07 01:47:37;;;;;;;5.33;3.60;;;10.00;99.90;;;;;;494229;240;27849;-76
2021/10/07 01:49:38;;;;;;;4.03;3.37;;;10.00;99.90;;;;;;494277;240;28040;-75
2021/10/07 01:51:39;;;;;;;5.87;3.50;;;10.00;99.90;;;;;;494181;240;28082;-77
2021/10/07 01:53:41;;;;;;;4.40;3.80;;;10.00;99.90;;;;;;494195;240;27851;-76
2021/10/07 01:55:42;;;;;;;5.67;3.37;;;10.00;99.90;;;;;;494189;240;27961;-76
2021/10/07 01:57:43;;;;;;;4.67;4.27;;;10.00;99.90;;;;;;494191;240;27899;-76
2021/10/07 01:59:44;;;;;;;6.07;4.07;;;10.00;99.90;;;;;;494189;240;27873;-77
2021/10/07 02:01:46;;;;;;;3.97;3.57;;;10.00;99.90;;;;;;494211;240;27745;-76
2021/10/07 02:03:47;;;;;;;3.70;3.40;;;10.00;99.90;;;;;;494377;240;27980;-77
2021/10/07 02:05:49;;;;;;;3.83;3.43;;;10.00;99.90;;;;;;494320;240;27601;-76
2021/10/07 02:07:50;;;;;;;4.43;3.80;;;10.00;99.90;;;;;;494210;240;28456;-77
2021/10/07 02:09:51;;;;;;;4.43;3.83;;;10.00;99.90;;;;;;494194;238;28011;-77
2021/10/07 02:11:52;;;;;;;4.10;3.40;;;10.00;99.90;;;;;;494218;240;28033;-77
2021/10/07 02:13:54;;;;;;;5.53;4.13;;;10.00;99.90;;;;;;494206;240;28373;-77
2021/10/07 02:15:55;;;;;;;5.27;4.57;;;10.00;99.90;;;;;;494175;240;28426;-76
2021/10/07 02:17:56;;;;;;;4.17;3.77;;;9.90;99.90;;;;;;494235;240;28299;-77
2021/10/07 02:19:57;;;;;;;4.50;4.10;;;9.90;99.90;;;;;;494214;240;28376;-77
2021/10/07 02:21:59;;;;;;;4.10;3.80;;;9.90;99.90;;;;;;494296;240;27957;-77
2021/10/07 02:24:00;;;;;;;4.13;3.80;;;9.90;99.90;;;;;;494399;240;27923;-76
2021/10/07 02:26:01;;;;;;;4.17;3.80;;;9.90;99.90;;;;;;494182;240;28040;-76
2021/10/07 02:28:02;;;;;;;3.93;3.53;;;9.90;99.90;;;;;;494366;240;27974;-74
2021/10/07 02:30:04;;;;;;;4.40;3.97;;;9.90;99.90;;;;;;494205;240;27931;-77
2021/10/07 02:34:09;;;;;;;5.33;3.80;;;9.90;99.90;;;;;;475056;247;28318;-76
2021/10/07 02:36:10;;;;;;;4.37;3.97;;;9.80;99.90;;;;;;475040;250;28450;-76
2021/10/07 02:38:11;;;;;;;5.50;3.70;;;9.90;99.90;;;;;;475317;250;27934;-76
2021/10/07 02:40:14;;;;;;;3.77;3.50;;;9.90;99.90;;;;;;475441;250;27614;-76
2021/10/07 02:44:22;;;;;;;4.37;3.63;;;9.90;99.90;;;;;;486437;242;28032;-77
2021/10/07 02:46:24;;;;;;;3.77;3.47;;;9.90;99.90;;;;;;486367;244;28016;-77
2021/10/07 02:48:25;;;;;;;5.33;3.77;;;9.90;99.90;;;;;;486396;244;28098;-76
2021/10/07 02:50:27;;;;;;;3.67;3.37;;;9.90;99.90;;;;;;486372;244;28334;-76
2021/10/07 02:52:27;;;;;;;3.67;3.23;;;9.90;99.90;;;;;;487177;235;28714;-76
2021/10/07 02:54:29;;;;;;;3.83;3.53;;;9.90;99.90;;;;;;478788;248;28559;-76
2021/10/07 02:56:30;;;;;;;9.87;3.77;;;9.90;99.90;;;;;;478417;248;28638;-76
2021/10/07 02:58:31;;;;;;;3.63;3.33;;;9.90;99.90;;;;;;478638;248;27998;-76
2021/10/07 03:00:32;;;;;;;3.90;3.50;;;9.80;99.90;;;;;;478845;248;27960;-76
2021/10/07 03:02:34;;;;;;;4.53;3.70;;;9.80;99.90;;;;;;478834;248;27903;-76
2021/10/07 03:04:35;;;;;;;4.13;3.73;;;9.90;99.90;;;;;;478869;248;27966;-76
2021/10/07 03:06:36;;;;;;;4.83;3.57;;;9.90;99.90;;;;;;478853;248;28008;-75
2021/10/07 03:08:37;;;;;;;3.53;3.23;;;9.90;99.90;;;;;;478797;248;27985;-76
2021/10/07 03:10:39;;;;;;;3.07;2.87;;;9.90;99.90;;;;;;478916;248;28078;-75
2021/10/07 03:12:40;;;;;;;3.80;3.50;;;10.00;99.90;;;;;;478780;248;27987;-75
2021/10/07 03:14:42;;;;;;;3.97;3.57;;;10.00;99.90;;;;;;478952;248;27937;-77
2021/10/07 03:16:42;;;;;;;3.97;3.50;;;10.00;99.90;;;;;;478773;248;27933;-77
2021/10/07 03:18:44;;;;;;;5.57;3.60;;;10.00;99.90;;;;;;478830;248;28121;-76
2021/10/07 03:20:45;;;;;;;4.30;3.70;;;10.00;99.90;;;;;;478857;248;27526;-76
2021/10/07 03:22:46;;;;;;;5.07;3.83;;;10.00;99.90;;;;;;478862;248;28552;-77
2021/10/07 03:24:47;;;;;;;3.90;3.60;;;9.90;99.90;;;;;;478855;248;28497;-76
2021/10/07 03:26:49;;;;;;;6.70;4.23;;;10.00;99.90;;;;;;478847;248;28234;-77
2021/10/07 03:28:50;;;;;;;3.13;2.80;;;10.00;99.90;;;;;;478832;248;27691;-77
2021/10/07 03:30:51;;;;;;;6.57;3.67;;;10.00;99.90;;;;;;478847;248;27732;-76
2021/10/07 03:32:52;;;;;;;3.70;3.40;;;10.00;99.90;;;;;;478929;248;27971;-77
2021/10/07 03:34:54;;;;;;;3.70;3.40;;;10.00;99.90;;;;;;478846;248;28003;-77
2021/10/07 03:36:55;;;;;;;3.53;3.23;;;10.00;99.90;;;;;;478922;248;27890;-77
2021/10/07 03:38:56;;;;;;;4.47;4.10;;;10.00;99.90;;;;;;478842;248;27913;-77
2021/10/07 03:40:57;;;;;;;4.30;3.43;;;10.00;99.90;;;;;;478874;248;28000;-76
2021/10/07 03:42:59;;;;;;;5.20;4.30;;;10.00;99.90;;;;;;478891;248;27913;-77
2021/10/07 03:45:02;;;;;;;4.37;3.97;;;10.00;99.90;;;;;;478843;248;27684;-77
2021/10/07 03:47:01;;;;;;;4.20;3.80;;;10.00;99.90;;;;;;478750;248;28459;-76
2021/10/07 03:49:02;;;;;;;4.10;3.70;;;9.90;99.90;;;;;;478816;248;28479;-76
2021/10/07 03:51:04;;;;;;;4.23;3.50;;;9.90;99.90;;;;;;478794;248;28482;-77
2021/10/07 03:53:05;;;;;;;4.13;3.80;;;9.90;99.90;;;;;;478842;248;28336;-76
2021/10/07 03:55:06;;;;;;;5.00;3.87;;;9.90;99.90;;;;;;478799;248;28422;-77
2021/10/07 03:57:07;;;;;;;4.53;3.90;;;9.90;99.90;;;;;;478803;248;27869;-77
2021/10/07 03:59:09;;;;;;;3.77;3.50;;;9.90;99.90;;;;;;478722;248;27907;-77
2021/10/07 04:01:10;;;;;;;4.63;3.80;;;9.90;99.90;;;;;;478987;248;27897;-77
2021/10/07 04:03:11;;;;;;;4.30;3.73;;;9.90;99.90;;;;;;479086;248;28141;-77
2021/10/07 04:05:12;;;;;;;3.77;3.47;;;9.90;99.90;;;;;;479055;248;27958;-77
2021/10/07 04:07:14;;;;;;;3.07;2.87;;;9.90;99.90;;;;;;479101;248;27915;-77
2021/10/07 04:09:15;;;;;;;4.20;3.80;;;9.90;99.90;;;;;;479079;248;27931;-77
2021/10/07 04:11:16;;;;;;;4.00;3.70;;;9.90;99.90;;;;;;479000;248;28003;-76
2021/10/07 04:13:17;;;;;;;4.20;3.80;;;9.80;99.90;;;;;;478977;248;28083;-77
2021/10/07 04:15:19;;;;;;;4.73;4.20;;;9.70;99.90;;;;;;478916;248;27909;-77
2021/10/07 04:17:20;;;;;;;4.53;4.10;;;9.70;99.90;;;;;;478956;248;27560;-76
2021/10/07 04:19:22;;;;;;;4.00;3.60;;;9.70;99.90;;;;;;478935;248;27834;-77
2021/10/07 04:21:24;;;;;;;4.83;3.67;;;9.70;99.90;;;;;;478755;248;27804;-77
2021/10/07 04:23:24;;;;;;;4.07;3.77;;;9.70;99.90;;;;;;478818;248;28000;-76
2021/10/07 04:25:25;;;;;;;4.30;3.90;;;9.70;99.90;;;;;;479093;248;28545;-77
2021/10/07 04:27:26;;;;;;;5.20;4.70;;;9.70;99.90;;;;;;479163;248;29081;-77
2021/10/07 04:29:27;;;;;;;4.93;4.47;;;9.70;99.90;;;;;;479120;248;28466;-77
2021/10/07 04:31:29;;;;;;;4.77;4.37;;;9.70;99.90;;;;;;479144;248;28264;-76
2021/10/07 04:33:30;;;;;;;4.20;3.90;;;9.70;99.90;;;;;;479069;248;28008;-77
2021/10/07 04:35:31;;;;;;;4.70;4.30;;;9.70;99.90;;;;;;478945;248;27922;-77
2021/10/07 04:37:32;;;;;;;5.47;4.97;;;9.70;99.90;;;;;;478993;248;27640;-74
2021/10/07 04:39:34;;;;;;;5.23;4.83;;;9.70;99.90;;;;;;478972;248;27807;-77
2021/10/07 04:41:35;;;;;;;5.27;4.50;;;9.60;99.90;;;;;;478967;248;28076;-73
2021/10/07 04:43:38;;;;;;;4.67;4.27;;;9.70;99.90;;;;;;478997;248;27954;-77
2021/10/07 04:45:37;;;;;;;4.40;4.00;;;9.70;99.90;;;;;;478833;248;27914;-77
2021/10/07 04:47:39;;;;;;;4.27;3.87;;;9.80;99.90;;;;;;478959;248;27568;-77
2021/10/07 04:49:40;;;;;;;6.50;4.87;;;9.80;99.90;;;;;;478949;248;27953;-77
2021/10/07 04:51:41;;;;;;;4.70;4.30;;;9.80;99.90;;;;;;478972;248;27873;-77
2021/10/07 04:53:42;;;;;;;5.80;4.30;;;9.80;99.90;;;;;;478939;248;27902;-76
2021/10/07 04:55:44;;;;;;;6.13;5.27;;;9.80;99.90;;;;;;477964;248;28005;-77
2021/10/07 04:57:45;;;;;;;7.40;5.80;;;9.80;99.90;;;;;;477923;249;27670;-76
2021/10/07 04:59:46;;;;;;;5.60;5.10;;;9.80;99.90;;;;;;477957;249;28031;-77
2021/10/07 05:01:47;;;;;;;5.30;4.80;;;9.80;99.90;;;;;;477918;249;27910;-76
2021/10/07 05:03:49;;;;;;;5.53;5.03;;;9.70;99.90;;;;;;477925;249;28424;-76
2021/10/07 05:05:50;;;;;;;4.73;4.33;;;9.70;99.90;;;;;;477873;249;28295;-76
2021/10/07 05:07:51;;;;;;;4.73;4.33;;;9.70;99.90;;;;;;477941;249;28370;-77
2021/10/07 05:09:52;;;;;;;4.27;3.97;;;9.70;99.90;;;;;;478282;249;27428;-74
2021/10/07 05:11:54;;;;;;;5.33;4.83;;;9.60;99.90;;;;;;477902;249;28511;-75
2021/10/07 05:13:55;;;;;;;4.70;4.30;;;9.60;99.90;;;;;;477900;249;27622;-77
2021/10/07 05:15:56;;;;;;;5.40;4.90;;;9.70;99.90;;;;;;477857;249;28270;-77
2021/10/07 05:17:57;;;;;;;5.17;4.67;;;9.60;99.90;;;;;;477849;249;27683;-76
2021/10/07 05:19:59;;;;;;;7.33;4.60;;;9.60;99.90;;;;;;477863;249;28088;-76
2021/10/07 05:22:00;;;;;;;4.90;4.27;;;9.60;99.90;;;;;;477800;249;27847;-77
2021/10/07 05:24:01;;;;;;;5.30;4.87;;;9.50;99.90;;;;;;477863;249;27814;-76
2021/10/07 05:26:02;;;;;;;5.30;4.60;;;9.50;99.90;;;;;;477868;249;27582;-77
2021/10/07 05:28:04;;;;;;;5.03;4.53;;;9.50;99.90;;;;;;477825;249;27939;-77
2021/10/07 05:30:05;;;;;;;5.90;4.53;;;9.50;99.90;;;;;;477890;249;27861;-76
2021/10/07 05:32:06;;;;;;;5.40;4.90;;;9.50;99.90;;;;;;477804;249;27565;-76
2021/10/07 05:34:07;;;;;;;4.87;4.37;;;9.50;99.90;;;;;;477841;249;27996;-76
2021/10/07 05:36:09;;;;;;;5.30;4.80;;;9.60;99.90;;;;;;477805;249;28016;-76
2021/10/07 05:38:10;;;;;;;5.80;5.20;;;9.60;99.90;;;;;;477838;249;27936;-77
2021/10/07 05:40:11;;;;;;;5.47;4.97;;;9.60;99.90;;;;;;477836;249;27872;-77
2021/10/07 05:42:12;;;;;;;5.57;5.07;;;9.60;99.90;;;;;;477815;249;28395;-76
2021/10/07 05:44:14;;;;;;;5.87;5.37;;;9.60;99.90;;;;;;477831;249;28092;-77
2021/10/07 05:46:15;;;;;;;5.53;4.93;;;9.70;99.90;;;;;;477842;249;28446;-77
2021/10/07 05:48:16;;;;;;;5.40;4.90;;;9.70;99.90;;;;;;477783;249;28049;-77
2021/10/07 05:50:17;;;;;;;5.77;5.20;;;9.70;99.90;;;;;;477836;249;28005;-76
2021/10/07 05:52:19;;;;;;;5.53;5.03;;;9.70;99.90;;;;;;477813;249;28153;-77
2021/10/07 05:54:20;;;;;;;6.60;5.47;;;9.70;99.90;;;;;;477766;249;27541;-77
2021/10/07 05:56:21;;;;;;;6.13;4.83;;;9.70;99.90;;;;;;477755;249;27903;-77
2021/10/07 05:58:22;;;;;;;5.80;5.00;;;9.70;99.90;;;;;;477762;249;27965;-76
2021/10/07 06:00:24;;;;;;;4.70;4.10;;;9.70;99.90;;;;;;477795;249;27797;-77
2021/10/07 06:02:25;;;;;;;5.70;4.37;;;9.80;99.90;;;;;;477826;249;27884;-77
2021/10/07 06:04:26;;;;;;;5.10;4.50;;;9.80;99.90;;;;;;477816;249;27806;-76
2021/10/07 06:06:27;;;;;;;5.43;4.23;;;9.80;99.90;;;;;;477806;249;27958;-76
2021/10/07 06:08:29;;;;;;;6.10;4.70;;;9.90;99.90;;;;;;477769;249;28062;-76
2021/10/07 06:10:30;;;;;;;4.80;4.40;;;9.90;99.90;;;;;;477823;249;28038;-77
2021/10/07 06:12:31;;;;;;;5.43;4.93;;;9.90;99.90;;;;;;477764;249;27926;-77
2021/10/07 06:14:32;;;;;;;4.53;4.13;;;9.90;99.90;;;;;;477824;249;27771;-77
2021/10/07 06:16:38;;;;;;;5.10;4.60;;;9.90;99.90;;;;;;477816;249;27889;-76
2021/10/07 06:18:35;;;;;;;5.50;5.00;;;9.90;99.90;;;;;;477466;249;27927;-75
2021/10/07 06:20:37;;;;;;;7.27;4.93;;;9.90;99.90;;;;;;477798;249;27877;-76
2021/10/07 06:22:37;;;;;;;5.33;4.83;;;9.90;99.90;;;;;;477763;249;28390;-77
2021/10/07 06:24:39;;;;;;;4.90;4.40;;;9.90;99.90;;;;;;477796;249;28490;-76
2021/10/07 06:26:40;;;;;;;5.03;4.47;;;9.90;99.90;;;;;;484043;245;28274;-76
2021/10/07 06:28:42;;;;;;;5.07;4.57;;;9.90;99.90;;;;;;485418;245;28106;-76
2021/10/07 06:30:42;;;;;;;5.03;4.57;;;10.00;99.90;;;;;;484519;245;28151;-75
2021/10/07 06:32:44;;;;;;;4.53;4.10;;;10.00;99.90;;;;;;485394;245;27770;-76
2021/10/07 06:34:45;;;;;;;5.50;4.63;;;10.00;99.90;;;;;;485392;245;27896;-76
2021/10/07 06:36:46;;;;;;;6.07;4.70;;;10.00;99.90;;;;;;485374;243;27834;-76
2021/10/07 06:38:47;;;;;;;5.73;5.10;;;10.10;99.90;;;;;;485391;245;27753;-76
2021/10/07 06:40:49;;;;;;;5.00;4.50;;;10.10;99.90;;;;;;485418;244;27740;-76
2021/10/07 06:42:50;;;;;;;5.30;4.43;;;10.10;99.90;;;;;;485427;245;28101;-76
2021/10/07 06:44:51;;;;;;;5.00;4.50;;;10.20;99.90;;;;;;485356;245;27970;-76
2021/10/07 06:46:52;;;;;;;4.70;4.10;;;10.30;99.90;;;;;;485420;245;27857;-76
2021/10/07 06:48:55;;;;;;;4.90;4.40;;;10.30;99.90;;;;;;485418;245;27997;-76
2021/10/07 06:50:55;;;;;;;5.73;5.23;;;10.40;99.90;;;;;;485288;245;28312;-77
2021/10/07 06:52:56;;;;;;;5.30;4.80;;;10.40;99.90;;;;;;484714;243;28539;-77
2021/10/07 06:54:57;;;;;;;5.23;4.73;;;10.50;99.90;;;;;;485099;245;28176;-76
2021/10/07 06:56:59;;;;;;;6.03;5.10;;;10.50;99.90;;;;;;485215;245;27728;-77
2021/10/07 06:59:00;;;;;;;5.50;4.87;;;10.60;99.90;;;;;;485400;245;27859;-74
2021/10/07 07:01:01;;;;;;;6.90;5.60;;;10.70;99.90;;;;;;485429;245;27778;-78
2021/10/07 07:03:03;;;;;;;10.87;5.40;;;10.80;99.90;;;;;;485358;245;27895;-77
2021/10/07 07:05:05;;;;;;;4.87;4.47;;;10.90;99.90;;;;;;485435;245;27818;-77
2021/10/07 07:07:05;;;;;;;6.43;4.70;;;11.00;99.90;;;;;;485326;245;27858;-77
2021/10/07 07:09:06;;;;;;;10.83;5.53;;;11.10;99.90;;;;;;485410;245;28108;-77
2021/10/07 07:11:07;;;;;;;5.50;5.00;;;11.10;99.90;;;;;;485412;244;28096;-77
2021/10/07 07:13:09;;;;;;;5.20;4.70;;;11.20;99.90;;;;;;485348;245;28626;-76
2021/10/07 07:15:10;;;;;;;5.23;4.73;;;11.10;99.90;;;;;;485472;245;28446;-77
2021/10/07 07:17:11;;;;;;;5.20;4.70;;;11.20;99.90;;;;;;485459;245;28390;-77
2021/10/07 07:19:12;;;;;;;4.57;4.10;;;11.20;99.90;;;;;;485368;245;28725;-78
2021/10/07 07:21:14;;;;;;;5.80;4.27;;;11.30;99.90;;;;;;485472;245;28196;-77
2021/10/07 07:23:15;;;;;;;4.40;4.00;;;11.40;99.90;;;;;;485442;245;28145;-75
2021/10/07 07:25:16;;;;;;;5.30;4.20;;;11.40;99.90;;;;;;485344;245;28151;-77
2021/10/07 07:27:17;;;;;;;4.63;4.20;;;11.40;99.90;;;;;;485467;245;28094;-78
2021/10/07 07:29:19;;;;;;;4.63;4.07;;;11.40;99.90;;;;;;485428;245;28239;-77
2021/10/07 07:31:20;;;;;;;4.47;4.07;;;11.30;99.90;;;;;;485352;245;28273;-77
2021/10/07 07:33:24;;;;;;;4.43;3.60;;;11.40;99.90;;;;;;485417;245;28215;-77
2021/10/07 07:35:22;;;;;;;4.07;3.67;;;11.30;99.90;;;;;;485164;245;28331;-76
2021/10/07 07:37:24;;;;;;;4.17;3.77;;;11.30;99.90;;;;;;485419;245;28833;-77
2021/10/07 07:39:25;;;;;;;3.93;3.63;;;11.30;99.90;;;;;;485417;245;28636;-76
2021/10/07 07:41:28;;;;;;;3.57;3.27;;;11.30;99.90;;;;;;485386;244;28583;-76
2021/10/07 07:43:27;;;;;;;4.80;4.13;;;11.30;99.90;;;;;;485320;245;28718;-77
2021/10/07 07:45:29;;;;;;;3.87;3.57;;;11.40;99.90;;;;;;485440;245;27997;-76
2021/10/07 07:47:30;;;;;;;4.10;3.70;;;11.40;99.90;;;;;;485370;245;28205;-77
2021/10/07 07:49:31;;;;;;;3.87;3.57;;;11.40;99.90;;;;;;485475;245;28220;-76
2021/10/07 07:51:35;;;;;;;4.60;4.10;;;;;;;;;;485447;245;28143;-76
2021/10/07 07:53:36;;;;;;;3.70;3.40;;;11.20;99.90;;;;;;485184;245;27028;-76
2021/10/07 07:55:38;;;;;;;4.30;4.00;;;11.20;99.90;;;;;;485466;245;28338;-77
2021/10/07 07:57:39;;;;;;;4.50;4.10;;;11.10;99.90;;;;;;485464;245;28478;-76
2021/10/07 07:59:40;;;;;;;5.07;3.80;;;11.10;99.90;;;;;;485414;245;29327;-76
2021/10/07 08:01:43;;;;;;;3.70;3.40;;;11.10;99.90;;;;;;485432;245;28582;-77
2021/10/07 08:03:43;;;;;;;4.53;3.90;;;11.10;99.90;;;;;;485352;245;28562;-77
2021/10/07 08:05:44;;;;;;;4.20;3.00;;;11.10;99.90;;;;;;485431;245;28160;-76
2021/10/07 08:07:45;;;;;;;3.43;3.23;;;11.10;99.90;;;;;;485447;244;28084;-77
2021/10/07 08:09:46;;;;;;;3.33;3.03;;;11.20;99.90;;;;;;485400;245;28093;-78
2021/10/07 08:11:48;;;;;;;3.00;2.80;;;11.20;99.90;;;;;;485470;245;28053;-77
2021/10/07 08:13:49;;;;;;;4.03;3.73;;;11.30;99.90;;;;;;485460;245;28058;-77
2021/10/07 08:15:51;;;;;;;4.57;3.87;;;11.30;99.90;;;;;;485421;245;27960;-78
2021/10/07 08:17:52;;;;;;;4.67;4.27;;;11.20;99.90;;;;;;485456;245;28024;-77
2021/10/07 08:19:53;;;;;;;4.37;3.63;;;11.30;99.90;;;;;;485455;245;27982;-77
2021/10/07 08:21:54;;;;;;;5.10;3.50;;;11.20;99.90;;;;;;485385;244;28319;-77
2021/10/07 08:23:57;;;;;;;5.63;3.97;;;11.20;99.90;;;;;;485452;245;28712;-77
2021/10/07 08:25:57;;;;;;;4.10;3.77;;;11.20;99.90;;;;;;485352;245;28580;-77
2021/10/07 08:27:58;;;;;;;4.30;3.90;;;11.20;99.90;;;;;;485398;245;28533;-78
2021/10/07 08:29:59;;;;;;;4.30;3.87;;;11.20;99.90;;;;;;485450;245;28509;-76
2021/10/07 08:32:00;;;;;;;5.40;3.70;;;11.30;99.90;;;;;;485407;245;28012;-77
2021/10/07 08:34:01;;;;;;;5.57;3.07;;;11.50;99.90;;;;;;485421;245;28011;-77
2021/10/07 08:36:03;;;;;;;4.27;3.73;;;11.50;99.90;;;;;;485422;245;27969;-77
2021/10/07 08:38:04;;;;;;;6.57;4.00;;;11.40;99.90;;;;;;485394;245;28519;-78
2021/10/07 08:40:05;;;;;;;4.43;3.73;;;11.30;99.90;;;;;;485501;245;28322;-77
2021/10/07 08:42:06;;;;;;;3.90;3.60;;;11.40;99.90;;;;;;485504;245;28143;-77
2021/10/07 08:44:08;;;;;;;3.27;3.07;;;11.60;99.90;;;;;;485441;245;28173;-78
2021/10/07 08:46:09;;;;;;;3.50;3.23;;;11.70;99.90;;;;;;485470;245;28323;-77
2021/10/07 08:48:10;;;;;;;4.50;3.67;;;11.80;99.90;;;;;;485509;245;28740;-78
2021/10/07 08:50:11;;;;;;;3.13;2.90;;;12.00;99.90;;;;;;485381;245;28479;-78
2021/10/07 08:52:13;;;;;;;3.30;3.10;;;12.00;99.90;;;;;;485513;245;28509;-78
2021/10/07 08:54:14;;;;;;;4.00;2.90;;;12.10;99.90;;;;;;485460;245;28836;-77
2021/10/07 08:56:15;;;;;;;3.10;2.90;;;12.30;99.90;;;;;;485384;245;28315;-77
2021/10/07 08:58:16;;;;;;;3.53;3.27;;;12.20;99.90;;;;;;485478;245;28394;-77
2021/10/07 09:00:18;;;;;;;4.47;4.00;;;12.10;99.90;;;;;;485437;245;28078;-77
2021/10/07 09:02:19;;;;;;;6.03;4.13;;;11.90;99.90;;;;;;485473;245;28548;-78
2021/10/07 09:04:20;;;;;;;5.60;4.07;;;11.90;99.90;;;;;;485429;245;28522;-77
2021/10/07 09:06:22;;;;;;;5.30;3.93;;;12.00;99.90;;;;;;485381;244;28323;-76
2021/10/07 09:08:23;;;;;;;5.37;3.97;;;11.80;99.90;;;;;;485467;245;28313;-77
2021/10/07 09:10:24;;;;;;;7.20;4.60;;;11.70;99.90;;;;;;485496;245;28099;-77
2021/10/07 09:12:26;;;;;;;5.70;4.63;;;11.70;99.90;;;;;;485282;244;28031;-78
2021/10/07 09:14:27;;;;;;;4.80;4.20;;;11.60;99.90;;;;;;485462;245;28377;-78
2021/10/07 09:16:29;;;;;;;7.07;3.87;;;11.80;99.90;;;;;;485478;245;28107;-77
2021/10/07 09:18:29;;;;;;;7.87;3.80;;;11.60;99.90;;;;;;485403;245;28331;-77
2021/10/07 09:20:30;;;;;;;5.87;3.77;;;11.80;99.90;;;;;;485444;245;28407;-77
2021/10/07 09:22:35;;;;;;;4.30;3.90;;;12.00;99.90;;;;;;485460;245;28857;-77
2021/10/07 09:24:33;;;;;;;3.73;3.00;;;12.30;99.90;;;;;;485134;245;28686;-77
2021/10/07 09:26:34;;;;;;;4.23;3.40;;;12.40;99.90;;;;;;485440;245;29327;-77
2021/10/07 09:28:35;;;;;;;4.10;3.20;;;12.50;99.90;;;;;;485411;245;29245;-78
2021/10/07 09:30:37;;;;;;;4.10;3.80;;;12.60;99.90;;;;;;485464;245;28742;-78
2021/10/07 09:32:41;;;;;;;4.13;3.73;;;12.30;99.90;;;;;;485467;245;28450;-77
2021/10/07 09:34:39;;;;;;;8.57;4.70;;;12.00;99.90;;;;;;485145;245;28297;-77
2021/10/07 09:36:40;;;;;;;4.97;3.70;;;12.00;99.90;;;;;;485431;245;28252;-77
2021/10/07 09:38:42;;;;;;;4.63;4.03;;;12.20;99.90;;;;;;485445;245;28477;-77
2021/10/07 09:40:43;;;;;;;5.33;3.60;;;12.50;99.90;;;;;;485390;245;28754;-77
2021/10/07 09:42:44;;;;;;;4.23;3.63;;;12.50;99.90;;;;;;485436;243;28750;-77
2021/10/07 09:44:45;;;;;;;4.50;4.10;;;12.40;99.90;;;;;;485466;245;29189;-78
2021/10/07 09:46:47;;;;;;;5.90;3.60;;;12.30;99.90;;;;;;485419;245;29238;-77
2021/10/07 09:48:48;;;;;;;3.70;3.40;;;12.50;99.90;;;;;;485457;245;28730;-77
2021/10/07 09:50:49;;;;;;;3.67;3.37;;;12.60;99.90;;;;;;485423;245;28307;-78
2021/10/07 09:52:50;;;;;;;3.40;3.20;;;12.60;99.90;;;;;;485398;245;28189;-78
2021/10/07 09:54:56;;;;;;;5.07;3.37;;;12.60;99.90;;;;;;485442;245;28213;-78
2021/10/07 09:56:54;;;;;;;3.20;2.80;;;12.60;99.90;;;;;;485095;245;28228;-77
2021/10/07 09:58:54;;;;;;;3.87;3.20;;;12.70;99.90;;;;;;485421;245;28096;-77
2021/10/07 10:00:55;;;;;;;5.27;3.77;;;12.80;99.90;;;;;;485444;245;28882;-77
2021/10/07 10:02:57;;;;;;;3.30;3.10;;;12.70;99.90;;;;;;485353;245;28201;-77
2021/10/07 10:04:58;;;;;;;5.73;3.50;;;12.80;99.90;;;;;;485465;245;28332;-78
2021/10/07 10:06:59;;;;;;;3.47;3.27;;;13.00;99.90;;;;;;485466;245;28113;-77
2021/10/07 10:09:00;;;;;;;3.00;2.80;;;13.20;99.90;;;;;;485433;245;29432;-78
2021/10/07 10:11:02;;;;;;;2.73;2.50;;;13.40;99.90;;;;;;485464;245;28644;-78
2021/10/07 10:13:03;;;;;;;2.60;2.40;;;13.50;99.90;;;;;;485402;245;28591;-77
2021/10/07 10:15:04;;;;;;;2.80;2.60;;;13.40;99.90;;;;;;485344;245;28079;-78
2021/10/07 10:17:05;;;;;;;3.20;2.90;;;13.30;99.90;;;;;;485435;245;28093;-77
2021/10/07 10:19:07;;;;;;;2.93;2.73;;;13.30;99.90;;;;;;485434;245;28382;-78
2021/10/07 10:21:08;;;;;;;2.73;2.53;;;13.30;99.90;;;;;;485382;245;28408;-78
2021/10/07 10:23:09;;;;;;;2.50;2.40;;;13.60;99.90;;;;;;485457;245;28128;-77
2021/10/07 10:25:10;;;;;;;2.70;2.50;;;13.60;99.90;;;;;;485366;245;28130;-78
2021/10/07 10:27:12;;;;;;;2.40;2.20;;;13.60;99.90;;;;;;485363;245;28535;-78
2021/10/07 10:29:13;;;;;;;2.60;2.40;;;13.70;99.90;;;;;;485596;245;28488;-76
2021/10/07 10:31:14;;;;;;;3.43;2.60;;;13.40;99.90;;;;;;485474;245;28565;-77
2021/10/07 10:33:15;;;;;;;3.70;3.30;;;13.20;99.90;;;;;;485543;245;28993;-77
2021/10/07 10:35:17;;;;;;;3.10;2.90;;;13.00;99.90;;;;;;485520;245;28836;-78
2021/10/07 10:37:18;;;;;;;2.80;2.60;;;13.00;99.90;;;;;;485392;245;28710;-77
2021/10/07 10:39:19;;;;;;;3.10;2.83;;;13.10;99.90;;;;;;485746;244;28627;-76
2021/10/07 10:41:20;;;;;;;4.87;2.90;;;13.10;99.90;;;;;;485657;245;28163;-78
2021/10/07 10:43:26;;;;;;;3.20;2.90;;;13.20;99.90;;;;;;485506;245;28218;-78
2021/10/07 10:45:23;;;;;;;2.70;2.50;;;13.30;99.90;;;;;;485364;245;28291;-78